createdAt,value
2023-04-16T00:06:47.132Z,2.22
2023-04-16T00:11:49.155Z,2.53
2023-04-16T00:16:54.213Z,3.78
2023-04-16T00:21:56.446Z,2.70
2023-04-16T00:26:58.515Z,2.85
2023-04-16T00:32:06.354Z,2.58
2023-04-16T00:37:08.413Z,2.50
2023-04-16T00:47:12.821Z,2.25
2023-04-16T00:52:15.811Z,3.40
2023-04-16T00:57:23.961Z,3.22
2023-04-16T01:05:15.182Z,2.78
2023-04-16T01:10:17.493Z,3.15
2023-04-16T01:15:20.436Z,3.13
2023-04-16T01:20:23.134Z,3.42
2023-04-16T01:25:25.508Z,3.03
2023-04-16T01:30:27.657Z,3.03
2023-04-16T01:35:41.248Z,6.95
2023-04-16T01:40:43.410Z,3.80
2023-04-16T01:45:45.674Z,3.22
2023-04-16T01:50:48.166Z,3.10
2023-04-16T01:55:50.448Z,2.80
2023-04-16T02:00:53.268Z,2.90
2023-04-16T02:10:59.907Z,2.88
2023-04-16T02:16:02.712Z,2.67
2023-04-16T02:21:33.487Z,2.60
2023-04-16T02:26:43.256Z,2.53
2023-04-16T02:31:50.153Z,2.13
2023-04-16T02:36:52.461Z,2.30
2023-04-16T02:41:54.741Z,2.88
2023-04-16T02:52:03.066Z,2.30
2023-04-16T02:57:06.208Z,2.25
2023-04-16T03:02:08.594Z,2.85
2023-04-16T03:07:12.558Z,2.72
2023-04-16T03:12:14.654Z,2.70
2023-04-16T03:17:16.776Z,2.20
2023-04-16T03:22:19.035Z,2.00
2023-04-16T03:27:24.675Z,1.98
2023-04-16T03:32:27.350Z,2.10
2023-04-16T03:37:30.722Z,1.83
2023-04-16T03:42:33.634Z,1.77
2023-04-16T03:47:35.840Z,2.15
2023-04-16T03:52:39.086Z,5.30
2023-04-16T04:08:55.684Z,8.55
2023-04-16T04:13:57.843Z,5.97
2023-04-16T04:19:00.487Z,4.43
2023-04-16T04:24:40.521Z,2.55
2023-04-16T04:30:23.437Z,1.60
2023-04-16T04:36:06.683Z,2.03
2023-04-16T04:41:10.266Z,1.10
2023-04-16T04:46:18.432Z,1.15
2023-04-16T04:51:20.697Z,1.10
2023-04-16T05:01:24.858Z,1.07
2023-04-16T05:06:31.048Z,0.93
2023-04-16T05:11:34.172Z,0.93
2023-04-16T05:16:37.285Z,0.93
2023-04-16T05:21:39.356Z,1.20
2023-04-16T05:26:41.314Z,0.90
2023-04-16T05:31:43.392Z,0.90
2023-04-16T05:36:45.962Z,1.00
2023-04-16T05:41:48.949Z,1.02
2023-04-16T05:46:51.275Z,0.90
2023-04-16T05:51:53.419Z,0.90
2023-04-16T05:56:55.399Z,1.25
2023-04-16T06:01:57.970Z,1.00
2023-04-16T06:07:01.766Z,0.93
2023-04-16T06:12:16.693Z,1.00
2023-04-16T06:17:19.544Z,0.90
2023-04-16T06:22:21.823Z,1.30
2023-04-16T06:27:23.926Z,1.08
2023-04-16T06:32:26.244Z,1.10
2023-04-16T06:42:30.443Z,1.30
2023-04-16T06:47:32.666Z,1.10
2023-04-16T06:52:35.036Z,1.10
2023-04-16T06:57:37.750Z,1.05
2023-04-16T07:02:40.096Z,1.38
2023-04-16T07:07:42.330Z,0.90
2023-04-16T07:17:47.061Z,0.90
2023-04-16T07:22:49.552Z,1.13
2023-04-16T07:27:51.956Z,0.93
2023-04-16T07:32:55.839Z,1.30
2023-04-16T07:37:58.160Z,1.17
2023-04-16T07:43:00.587Z,1.02
2023-04-16T07:48:02.750Z,1.02
2023-04-16T07:53:07.601Z,1.20
2023-04-16T07:58:09.836Z,0.93
2023-04-16T08:03:12.141Z,1.17
2023-04-16T08:08:14.396Z,1.10
2023-04-16T08:13:21.894Z,1.00
2023-04-16T08:18:23.980Z,1.10
2023-04-16T08:23:26.319Z,1.10
2023-04-16T08:28:28.318Z,1.10
2023-04-16T08:33:30.627Z,1.20
2023-04-16T08:38:32.630Z,1.00
2023-04-16T08:43:38.350Z,1.45
2023-04-16T08:48:43.426Z,1.17
2023-04-16T08:53:54.160Z,1.00
2023-04-16T08:58:58.517Z,0.90
2023-04-16T09:04:03.265Z,0.80
2023-04-16T09:09:12.551Z,0.90
2023-04-16T09:14:14.774Z,1.00
2023-04-16T09:19:17.380Z,0.80
2023-04-16T09:24:20.040Z,0.95
2023-04-16T09:29:41.144Z,0.82
2023-04-16T09:34:59.048Z,1.10
2023-04-16T09:40:03.815Z,1.10
2023-04-16T09:45:15.868Z,1.70
2023-04-16T09:50:20.380Z,1.65
2023-04-16T09:55:27.915Z,1.50
2023-04-16T10:00:33.379Z,1.73
2023-04-16T10:05:35.476Z,1.20
2023-04-16T10:10:38.196Z,1.48
2023-04-16T10:15:40.856Z,1.20
2023-04-16T10:20:43.990Z,1.40
2023-04-16T10:25:47.856Z,1.67
2023-04-16T10:30:55.344Z,2.33
2023-04-16T10:36:26.832Z,1.45
2023-04-16T10:41:29.243Z,2.90
2023-04-16T10:46:41.599Z,1.88
2023-04-16T10:51:53.070Z,2.00
2023-04-16T10:57:00.797Z,1.95
2023-04-16T11:02:18.477Z,1.73
2023-04-16T11:07:31.475Z,1.70
2023-04-16T11:12:44.204Z,2.10
2023-04-16T11:17:47.414Z,1.95
2023-04-16T11:22:50.955Z,2.83
2023-04-16T11:27:53.686Z,2.38
2023-04-16T11:32:55.837Z,2.30
2023-04-16T11:37:58.479Z,3.22
2023-04-16T11:43:12.751Z,3.60
2023-04-16T11:48:14.839Z,2.20
2023-04-16T11:53:16.968Z,9.00
2023-04-16T11:58:20.159Z,5.65
2023-04-16T12:09:26.028Z,2.00
2023-04-16T12:14:28.614Z,1.95
2023-04-16T12:19:30.549Z,1.70
2023-04-16T12:29:34.662Z,2.70
2023-04-16T12:34:51.315Z,2.33
2023-04-16T12:39:54.241Z,2.30
2023-04-16T12:44:56.430Z,2.08
2023-04-16T12:49:59.458Z,1.90
2023-04-16T12:55:02.934Z,1.77
2023-04-16T13:00:16.752Z,1.40
2023-04-16T13:05:19.438Z,1.40
2023-04-16T13:10:23.560Z,1.83
2023-04-16T13:15:25.728Z,1.70
2023-04-16T13:20:28.034Z,1.50
2023-04-16T13:25:31.137Z,1.40
2023-04-16T13:30:33.624Z,1.20
2023-04-16T13:35:35.875Z,1.30
2023-04-16T13:40:38.313Z,1.33
2023-04-16T13:45:40.673Z,1.33
2023-04-16T13:50:43.001Z,1.58
2023-04-16T13:55:45.057Z,1.65
2023-04-16T14:00:47.376Z,1.70
2023-04-16T14:05:49.333Z,1.23
2023-04-16T14:25:58.008Z,1.20
2023-04-16T14:36:03.209Z,1.35
2023-04-16T14:41:30.793Z,1.42
2023-04-16T14:46:33.787Z,1.48
2023-04-16T14:51:35.776Z,1.58
2023-04-16T14:56:37.932Z,1.50
2023-04-16T15:01:40.559Z,1.50
2023-04-16T15:06:55.626Z,1.73
2023-04-16T15:11:58.325Z,1.20
2023-04-16T15:17:00.953Z,1.40
2023-04-16T15:22:03.058Z,1.63
2023-04-16T15:27:08.444Z,1.52
2023-04-16T15:32:11.752Z,1.30
2023-04-16T15:37:22.668Z,1.60
2023-04-16T15:47:26.776Z,1.40
2023-04-16T15:52:28.934Z,1.27
2023-04-16T15:57:31.142Z,1.13
2023-04-16T16:02:34.061Z,1.30
2023-04-16T16:07:36.565Z,1.40
2023-04-16T16:12:39.210Z,1.35
2023-04-16T16:17:41.380Z,1.27
2023-04-16T16:22:45.321Z,1.20
2023-04-16T16:27:47.407Z,1.35
2023-04-16T16:32:49.525Z,1.40
2023-04-16T16:37:55.744Z,1.60
2023-04-16T16:43:04.170Z,1.23
2023-04-16T16:48:06.687Z,0.95
2023-04-16T16:53:08.826Z,1.40
2023-04-16T16:58:11.297Z,1.23
2023-04-16T17:03:13.675Z,1.10
2023-04-16T17:08:15.992Z,1.02
2023-04-16T17:13:44.198Z,1.27
2023-04-16T17:18:52.643Z,1.10
2023-04-16T17:23:58.167Z,1.35
2023-04-16T17:29:04.850Z,1.20
2023-04-16T17:34:07.231Z,1.02
2023-04-16T17:39:09.372Z,1.58
2023-04-16T17:44:11.948Z,0.93
2023-04-16T17:49:14.002Z,1.35
2023-04-16T17:59:18.157Z,1.55
2023-04-16T18:04:20.237Z,1.23
2023-04-16T18:09:22.582Z,1.10
2023-04-16T18:14:27.749Z,1.20
2023-04-16T18:19:32.301Z,1.10
2023-04-16T18:24:36.486Z,1.30
2023-04-16T18:29:40.857Z,1.20
2023-04-16T18:34:43.211Z,1.70
2023-04-16T18:39:45.400Z,1.45
2023-04-16T18:44:54.164Z,1.67
2023-04-16T18:49:56.197Z,1.73
2023-04-16T19:00:00.140Z,1.52
2023-04-16T19:05:02.351Z,1.30
2023-04-16T19:10:07.296Z,1.30
2023-04-16T19:15:09.810Z,1.40
2023-04-16T19:20:11.945Z,2.15
2023-04-16T19:25:14.106Z,1.38
2023-04-16T19:30:16.266Z,1.70
2023-04-16T19:35:18.280Z,1.45
2023-04-16T19:40:20.545Z,1.67
2023-04-16T19:45:26.044Z,1.38
2023-04-16T19:50:31.633Z,1.67
2023-04-16T19:55:33.833Z,1.88
2023-04-16T20:00:43.198Z,1.98
2023-04-16T20:05:48.562Z,1.63
2023-04-16T20:10:54.623Z,1.60
2023-04-16T20:15:57.569Z,1.52
2023-04-16T20:21:04.523Z,1.70
2023-04-16T20:26:06.973Z,1.45
2023-04-16T20:31:09.066Z,2.90
2023-04-16T20:41:20.301Z,1.60
2023-04-16T20:46:30.354Z,1.50
2023-04-16T20:51:33.483Z,1.55
2023-04-16T20:56:39.952Z,1.60
2023-04-16T21:01:52.359Z,2.08
2023-04-16T21:07:20.204Z,1.83
2023-04-16T21:12:24.915Z,1.60
2023-04-16T21:17:27.276Z,2.10
2023-04-16T21:22:29.502Z,1.15
2023-04-16T21:32:34.908Z,1.63
2023-04-16T21:37:37.372Z,1.25
2023-04-16T21:42:42.156Z,1.50
2023-04-16T21:47:44.276Z,1.80
2023-04-16T21:52:46.993Z,1.77
2023-04-16T21:57:49.294Z,1.52
2023-04-16T22:02:51.719Z,1.30
2023-04-16T22:07:54.064Z,1.50
2023-04-16T22:12:56.012Z,1.35
2023-04-16T22:17:58.261Z,1.73
2023-04-16T22:23:00.627Z,1.50
2023-04-16T22:28:06.473Z,2.00
2023-04-16T22:33:08.743Z,1.50
2023-04-16T22:38:11.185Z,2.03
2023-04-16T22:43:13.113Z,1.80
2023-04-16T22:48:15.633Z,3.25
2023-04-16T22:53:18.423Z,1.83
2023-04-16T22:58:22.929Z,1.80
2023-04-16T23:03:28.402Z,2.00
2023-04-16T23:08:30.759Z,2.22
2023-04-16T23:13:38.218Z,4.20
2023-04-16T23:23:42.398Z,1.60
2023-04-16T23:28:44.468Z,2.38
2023-04-16T23:38:48.946Z,1.67
2023-04-16T23:43:50.861Z,2.08
2023-04-16T23:48:55.181Z,2.30
2023-04-16T23:53:58.008Z,2.15
2023-04-16T23:59:00.131Z,2.17
